createdAt,value
2023-03-12T00:00:11.350Z,66.01
2023-03-12T00:02:38.611Z,65.72
2023-03-12T00:05:06.707Z,66.02
2023-03-12T00:07:36.441Z,66.60
2023-03-12T00:10:06.720Z,66.05
2023-03-12T00:12:34.142Z,66.15
2023-03-12T00:15:01.586Z,65.69
2023-03-12T00:17:30.358Z,65.85
2023-03-12T00:19:58.093Z,65.68
2023-03-12T00:22:25.804Z,65.74
2023-03-12T00:24:57.849Z,65.85
2023-03-12T00:27:27.063Z,65.96
2023-03-12T00:29:54.777Z,66.12
2023-03-12T00:32:22.653Z,65.93
2023-03-12T00:34:55.752Z,65.92
2023-03-12T00:37:23.212Z,65.58
2023-03-12T00:39:50.302Z,66.12
2023-03-12T00:42:17.781Z,66.34
2023-03-12T00:44:45.253Z,66.15
2023-03-12T00:47:13.252Z,66.14
2023-03-12T00:49:40.762Z,65.84
2023-03-12T00:52:08.583Z,66.15
2023-03-12T00:54:35.732Z,66.32
2023-03-12T00:57:02.965Z,65.70
2023-03-12T00:59:30.306Z,65.57
2023-03-12T01:01:57.645Z,65.90
2023-03-12T01:04:24.820Z,65.42
2023-03-12T01:06:52.003Z,65.56
2023-03-12T01:09:19.184Z,65.77
2023-03-12T01:11:46.307Z,67.10
2023-03-12T01:14:13.397Z,66.87
2023-03-12T01:16:40.606Z,67.74
2023-03-12T01:19:07.756Z,67.64
2023-03-12T01:21:34.947Z,66.57
2023-03-12T01:24:02.150Z,66.40
2023-03-12T01:26:29.297Z,67.04
2023-03-12T01:28:56.492Z,67.81
2023-03-12T01:31:23.654Z,67.09
2023-03-12T01:33:54.062Z,67.77
2023-03-12T01:36:25.952Z,66.91
2023-03-12T01:38:59.535Z,66.51
2023-03-12T01:41:32.038Z,66.69
2023-03-12T01:44:03.519Z,66.25
2023-03-12T01:46:43.163Z,67.69
2023-03-12T01:49:19.971Z,66.79
2023-03-12T01:52:31.887Z,68.16
2023-03-12T01:55:25.487Z,68.24
2023-03-12T01:57:58.079Z,67.28
2023-03-12T02:00:27.579Z,67.10
2023-03-12T02:03:01.703Z,66.99
2023-03-12T02:06:14.541Z,66.94
2023-03-12T02:08:47.633Z,66.13
2023-03-12T02:11:14.813Z,67.15
2023-03-12T02:13:42.038Z,68.02
2023-03-12T02:16:10.167Z,69.57
2023-03-12T02:18:37.303Z,68.68
2023-03-12T02:21:29.962Z,69.51
2023-03-12T02:24:30.836Z,69.95
2023-03-12T02:26:58.573Z,69.15
2023-03-12T02:29:30.724Z,68.89
2023-03-12T02:32:02.560Z,70.00
2023-03-12T02:34:32.838Z,68.19
2023-03-12T02:36:59.900Z,68.10
2023-03-12T02:39:27.875Z,69.64
2023-03-12T02:41:57.793Z,69.12
2023-03-12T02:44:33.256Z,69.44
2023-03-12T02:47:01.876Z,68.28
2023-03-12T02:49:34.016Z,69.47
2023-03-12T02:52:02.308Z,68.40
2023-03-12T02:54:30.077Z,68.26
2023-03-12T02:56:58.075Z,68.16
2023-03-12T02:59:26.792Z,67.97
2023-03-12T03:02:00.539Z,68.16
2023-03-12T03:04:30.320Z,68.26
2023-03-12T03:06:57.611Z,68.05
2023-03-12T03:09:25.804Z,68.61
2023-03-12T03:11:53.364Z,68.63
2023-03-12T03:14:20.597Z,68.70
2023-03-12T03:16:47.641Z,68.36
2023-03-12T03:19:15.030Z,68.58
2023-03-12T03:21:43.786Z,68.14
2023-03-12T03:24:10.965Z,68.15
2023-03-12T03:26:38.218Z,67.81
2023-03-12T03:29:05.380Z,68.63
2023-03-12T03:31:32.720Z,68.47
2023-03-12T03:33:59.984Z,68.36
2023-03-12T03:36:27.100Z,68.68
2023-03-12T03:38:54.195Z,68.24
2023-03-12T03:41:22.972Z,68.13
2023-03-12T03:43:50.052Z,68.34
2023-03-12T03:46:17.575Z,69.07
2023-03-12T03:48:44.748Z,68.96
2023-03-12T03:51:12.351Z,68.26
2023-03-12T03:53:39.748Z,68.94
2023-03-12T03:56:16.556Z,68.42
2023-03-12T03:58:43.889Z,69.05
2023-03-12T04:01:15.080Z,68.82
2023-03-12T04:03:42.315Z,68.09
2023-03-12T04:06:09.617Z,68.98
2023-03-12T04:08:37.912Z,68.82
2023-03-12T04:11:20.988Z,68.77
2023-03-12T04:13:49.159Z,68.99
2023-03-12T04:16:17.639Z,69.24
2023-03-12T04:18:45.220Z,68.98
2023-03-12T04:21:15.154Z,69.34
2023-03-12T04:23:42.554Z,68.62
2023-03-12T04:26:09.839Z,69.95
2023-03-12T04:28:38.719Z,69.94
2023-03-12T04:31:08.449Z,68.64
2023-03-12T04:33:39.497Z,68.62
2023-03-12T04:36:07.542Z,69.34
2023-03-12T04:38:34.944Z,68.30
2023-03-12T04:41:10.629Z,69.05
2023-03-12T04:43:37.913Z,68.36
2023-03-12T04:46:06.660Z,69.61
2023-03-12T04:48:34.722Z,69.99
2023-03-12T04:51:03.794Z,68.94
2023-03-12T04:53:31.461Z,69.87
2023-03-12T04:55:59.286Z,69.73
2023-03-12T04:58:26.533Z,69.95
2023-03-12T05:00:53.738Z,69.01
2023-03-12T05:03:20.797Z,69.85
2023-03-12T05:05:47.882Z,69.81
2023-03-12T05:08:14.977Z,69.39
2023-03-12T05:10:45.294Z,68.93
2023-03-12T05:13:19.929Z,69.95
2023-03-12T05:15:48.538Z,69.19
2023-03-12T05:18:15.751Z,69.95
2023-03-12T05:20:42.904Z,70.18
2023-03-12T05:23:10.028Z,70.35
2023-03-12T05:25:41.069Z,70.27
2023-03-12T05:28:08.632Z,70.20
2023-03-12T05:30:35.740Z,70.04
2023-03-12T05:33:02.861Z,70.27
2023-03-12T05:35:30.051Z,69.60
2023-03-12T05:37:57.247Z,69.52
2023-03-12T05:40:26.797Z,70.77
2023-03-12T05:42:53.982Z,70.10
2023-03-12T05:45:21.100Z,69.80
2023-03-12T05:47:48.152Z,69.15
2023-03-12T05:50:16.720Z,69.94
2023-03-12T05:52:43.806Z,70.42
2023-03-12T05:55:10.937Z,70.02
2023-03-12T05:57:38.056Z,69.51
2023-03-12T06:00:06.415Z,70.33
2023-03-12T06:02:33.499Z,69.17
2023-03-12T06:05:00.673Z,70.22
2023-03-12T06:07:27.822Z,69.21
2023-03-12T06:09:54.869Z,69.12
2023-03-12T06:12:21.974Z,70.12
2023-03-12T06:14:51.976Z,68.97
2023-03-12T06:17:20.452Z,70.31
2023-03-12T06:19:52.865Z,69.95
2023-03-12T06:22:20.902Z,70.33
2023-03-12T06:24:47.984Z,69.15
2023-03-12T06:27:16.416Z,69.80
2023-03-12T06:29:43.746Z,69.12
2023-03-12T06:32:10.832Z,68.63
2023-03-12T06:34:38.236Z,68.98
2023-03-12T06:37:05.576Z,68.03
2023-03-12T06:39:33.213Z,68.13
2023-03-12T06:42:00.382Z,68.21
2023-03-12T06:44:27.979Z,67.58
2023-03-12T06:46:55.767Z,68.06
2023-03-12T06:49:23.566Z,67.86
2023-03-12T06:51:51.037Z,67.60
2023-03-12T06:54:18.316Z,66.60
2023-03-12T06:56:46.010Z,66.94
2023-03-12T06:59:13.248Z,66.79
2023-03-12T07:01:40.377Z,66.75
2023-03-12T07:04:07.484Z,66.74
2023-03-12T07:06:35.148Z,66.79
2023-03-12T07:09:02.411Z,67.03
2023-03-12T07:11:30.564Z,66.83
2023-03-12T07:13:58.087Z,66.01
2023-03-12T07:16:25.253Z,64.92
2023-03-12T07:18:52.341Z,65.27
2023-03-12T07:21:23.662Z,65.48
2023-03-12T07:23:52.478Z,66.06
2023-03-12T07:26:20.624Z,65.69
2023-03-12T07:28:47.924Z,65.08
2023-03-12T07:31:15.599Z,66.18
2023-03-12T07:33:42.922Z,66.10
2023-03-12T07:36:10.177Z,65.77
2023-03-12T07:38:37.356Z,65.26
2023-03-12T07:41:05.112Z,65.54
2023-03-12T07:43:33.009Z,64.93
2023-03-12T07:46:00.186Z,65.21
2023-03-12T07:48:30.846Z,64.63
2023-03-12T07:50:57.932Z,64.91
2023-03-12T07:53:25.054Z,64.36
2023-03-12T07:55:52.498Z,64.84
2023-03-12T07:58:19.744Z,64.13
2023-03-12T08:00:47.777Z,63.81
2023-03-12T08:03:15.158Z,64.02
2023-03-12T08:05:42.481Z,62.60
2023-03-12T08:08:09.892Z,63.87
2023-03-12T08:10:37.584Z,62.98
2023-03-12T08:13:05.934Z,62.86
2023-03-12T08:15:36.119Z,62.47
2023-03-12T08:18:03.260Z,62.21
2023-03-12T08:20:30.416Z,61.52
2023-03-12T08:22:57.577Z,62.15
2023-03-12T08:25:24.827Z,63.32
2023-03-12T08:27:52.019Z,62.44
2023-03-12T08:30:19.618Z,61.06
2023-03-12T08:32:47.404Z,61.56
2023-03-12T08:35:14.565Z,61.77
2023-03-12T08:37:42.367Z,60.25
2023-03-12T08:40:13.566Z,60.36
2023-03-12T08:42:45.583Z,60.16
2023-03-12T08:45:14.457Z,60.32
2023-03-12T08:47:43.486Z,58.91
2023-03-12T08:50:14.214Z,58.79
2023-03-12T08:52:41.764Z,58.68
2023-03-12T08:55:10.948Z,59.11
2023-03-12T08:57:38.430Z,58.76
2023-03-12T09:00:11.240Z,58.82
2023-03-12T09:02:38.939Z,57.69
2023-03-12T09:05:07.364Z,58.90
2023-03-12T09:07:34.696Z,57.96
2023-03-12T09:10:01.778Z,57.60
2023-03-12T09:12:29.125Z,56.99
2023-03-12T09:15:03.320Z,56.78
2023-03-12T09:17:31.133Z,56.59
2023-03-12T09:19:58.313Z,56.89
2023-03-12T09:22:25.813Z,56.61
2023-03-12T09:24:53.129Z,55.69
2023-03-12T09:27:20.227Z,55.03
2023-03-12T09:29:59.552Z,54.13
2023-03-12T09:32:28.299Z,54.44
2023-03-12T09:34:55.554Z,53.18
2023-03-12T09:37:24.290Z,53.47
2023-03-12T09:39:53.312Z,53.64
2023-03-12T09:43:08.851Z,53.39
2023-03-12T09:45:44.356Z,52.76
2023-03-12T09:48:35.494Z,52.74
2023-03-12T09:51:36.344Z,52.08
2023-03-12T09:54:23.479Z,52.93
2023-03-12T09:56:52.550Z,52.74
2023-03-12T09:59:19.759Z,52.29
2023-03-12T10:02:05.348Z,52.47
2023-03-12T10:04:58.931Z,51.66
2023-03-12T10:07:36.274Z,51.87
2023-03-12T10:10:51.430Z,51.69
2023-03-12T10:14:00.743Z,52.09
2023-03-12T10:17:02.931Z,50.63
2023-03-12T10:19:47.745Z,50.97
2023-03-12T10:23:30.438Z,50.33
2023-03-12T10:26:23.506Z,49.75
2023-03-12T10:29:10.403Z,49.07
2023-03-12T10:32:00.128Z,50.35
2023-03-12T10:35:04.074Z,49.74
2023-03-12T10:37:50.314Z,49.55
2023-03-12T10:40:40.635Z,50.40
2023-03-12T10:43:09.780Z,49.27
2023-03-12T10:46:34.673Z,49.41
2023-03-12T10:49:30.214Z,49.57
2023-03-12T10:52:11.585Z,50.28
2023-03-12T10:54:41.308Z,50.44
2023-03-12T10:57:09.258Z,49.93
2023-03-12T10:59:43.664Z,48.94
2023-03-12T11:02:59.852Z,48.36
2023-03-12T11:05:45.658Z,47.69
2023-03-12T11:08:37.002Z,48.14
2023-03-12T11:11:05.915Z,48.28
2023-03-12T11:13:39.424Z,48.47
2023-03-12T11:16:18.637Z,47.01
2023-03-12T11:19:05.192Z,48.19
2023-03-12T11:21:40.310Z,49.02
2023-03-12T11:24:14.189Z,48.08
2023-03-12T11:26:57.413Z,47.21
2023-03-12T11:29:33.386Z,47.33
2023-03-12T11:32:24.360Z,46.60
2023-03-12T11:34:52.998Z,46.21
2023-03-12T11:38:15.408Z,44.72
2023-03-12T11:41:31.728Z,46.85
2023-03-12T11:44:24.593Z,44.67
2023-03-12T11:47:39.129Z,46.39
2023-03-12T11:50:34.773Z,46.29
2023-03-12T11:53:16.017Z,45.79
2023-03-12T11:56:07.918Z,45.29
2023-03-12T11:59:17.294Z,45.03
2023-03-12T12:02:12.885Z,45.66
2023-03-12T12:05:59.838Z,45.65
2023-03-12T12:09:11.609Z,46.21
2023-03-12T12:12:05.765Z,45.37
2023-03-12T12:14:54.636Z,46.16
2023-03-12T12:17:48.717Z,46.45
2023-03-12T12:20:47.924Z,45.07
2023-03-12T12:23:30.322Z,44.81
2023-03-12T12:26:42.892Z,44.60
2023-03-12T12:29:36.673Z,45.82
2023-03-12T12:32:05.862Z,44.76
2023-03-12T12:35:14.425Z,43.95
2023-03-12T12:38:44.283Z,43.19
2023-03-12T12:41:32.722Z,42.59
2023-03-12T12:44:11.267Z,41.49
2023-03-12T12:46:53.397Z,42.28
2023-03-12T12:49:45.168Z,43.34
2023-03-12T12:52:21.615Z,42.70
2023-03-12T12:55:11.435Z,43.54
2023-03-12T12:58:19.391Z,43.06
2023-03-12T13:00:55.046Z,42.43
2023-03-12T13:03:25.994Z,41.95
2023-03-12T13:05:52.886Z,41.83
2023-03-12T13:08:43.374Z,43.29
2023-03-12T13:11:20.462Z,43.53
2023-03-12T13:14:03.904Z,43.04
2023-03-12T13:16:44.817Z,42.66
2023-03-12T13:19:14.985Z,44.85
2023-03-12T13:22:15.204Z,41.79
2023-03-12T13:25:15.635Z,42.37
2023-03-12T13:27:46.220Z,41.73
2023-03-12T13:30:34.851Z,41.39
2023-03-12T13:33:06.183Z,39.86
2023-03-12T13:35:39.888Z,40.73
2023-03-12T13:38:17.767Z,40.05
2023-03-12T13:41:03.027Z,40.38
2023-03-12T13:43:52.032Z,39.70
2023-03-12T13:46:18.952Z,41.80
2023-03-12T13:48:50.106Z,39.22
2023-03-12T13:51:24.500Z,39.52
2023-03-12T13:54:02.927Z,39.88
2023-03-12T13:56:33.591Z,40.03
2023-03-12T13:59:07.582Z,38.95
2023-03-12T14:01:48.835Z,39.95
2023-03-12T14:04:40.802Z,41.47
2023-03-12T14:08:22.521Z,42.43
2023-03-12T14:12:03.468Z,40.31
2023-03-12T14:15:11.774Z,42.16
2023-03-12T14:17:39.557Z,41.71
2023-03-12T14:20:19.512Z,41.59
2023-03-12T14:23:08.803Z,41.15
2023-03-12T14:25:45.748Z,43.98
2023-03-12T14:28:24.311Z,42.27
2023-03-12T14:31:14.704Z,40.58
2023-03-12T14:34:21.767Z,41.40
2023-03-12T14:37:23.839Z,42.94
2023-03-12T14:40:06.658Z,41.18
2023-03-12T14:42:38.562Z,41.27
2023-03-12T14:45:14.601Z,39.20
2023-03-12T14:47:48.675Z,42.49
2023-03-12T14:50:40.387Z,40.45
2023-03-12T14:53:34.836Z,39.90
2023-03-12T14:56:25.662Z,42.01
2023-03-12T14:58:53.452Z,43.22
2023-03-12T15:01:29.937Z,42.86
2023-03-12T15:04:15.147Z,42.53
2023-03-12T15:06:56.877Z,45.87
2023-03-12T15:09:28.910Z,47.00
2023-03-12T15:12:18.282Z,45.54
2023-03-12T15:14:46.110Z,47.08
2023-03-12T15:17:19.530Z,45.86
2023-03-12T15:19:48.888Z,47.13
2023-03-12T15:22:21.008Z,45.02
2023-03-12T15:24:48.917Z,46.36
2023-03-12T15:27:28.673Z,46.43
2023-03-12T15:29:59.802Z,47.96
2023-03-12T15:32:30.630Z,47.69
2023-03-12T15:34:59.310Z,47.17
2023-03-12T15:37:37.868Z,47.21
2023-03-12T15:40:28.881Z,47.69
2023-03-12T15:43:01.884Z,48.17
2023-03-12T15:45:39.076Z,47.09
2023-03-12T15:48:38.017Z,46.77
2023-03-12T15:51:35.844Z,47.63
2023-03-12T15:54:27.499Z,47.21
2023-03-12T15:56:55.393Z,47.92
2023-03-12T15:59:28.314Z,48.10
2023-03-12T16:01:57.042Z,48.57
2023-03-12T16:04:24.511Z,49.88
2023-03-12T16:06:53.373Z,51.21
2023-03-12T16:09:26.162Z,50.60
2023-03-12T16:11:55.263Z,50.30
2023-03-12T16:14:31.717Z,50.92
2023-03-12T16:16:59.031Z,51.33
2023-03-12T16:19:33.152Z,52.22
2023-03-12T16:22:00.527Z,53.52
2023-03-12T16:24:27.587Z,53.79
2023-03-12T16:26:59.212Z,53.64
2023-03-12T16:29:36.846Z,54.22
2023-03-12T16:32:17.096Z,54.51
2023-03-12T16:34:45.392Z,56.74
2023-03-12T16:37:13.405Z,57.71
2023-03-12T16:39:40.614Z,58.43
2023-03-12T16:42:16.935Z,57.68
2023-03-12T16:44:46.286Z,57.38
2023-03-12T16:47:14.436Z,56.10
2023-03-12T16:49:43.112Z,57.40
2023-03-12T16:52:41.595Z,56.45
2023-03-12T16:55:09.392Z,57.06
2023-03-12T16:57:41.655Z,56.49
2023-03-12T17:00:27.146Z,56.08
2023-03-12T17:02:59.629Z,56.82
2023-03-12T17:05:30.692Z,56.63
2023-03-12T17:07:59.434Z,58.14
2023-03-12T17:10:27.065Z,59.06
2023-03-12T17:12:55.636Z,58.85
2023-03-12T17:15:28.313Z,60.96
2023-03-12T17:17:55.775Z,61.01
2023-03-12T17:20:24.888Z,61.62
2023-03-12T17:22:53.080Z,61.97
2023-03-12T17:25:30.578Z,62.11
2023-03-12T17:27:57.840Z,61.87
2023-03-12T17:30:28.024Z,61.33
2023-03-12T17:33:07.615Z,62.17
2023-03-12T17:35:35.566Z,62.93
2023-03-12T17:38:02.709Z,62.01
2023-03-12T17:40:30.039Z,62.66
2023-03-12T17:42:57.257Z,62.90
2023-03-12T17:45:24.835Z,63.35
2023-03-12T17:47:51.970Z,63.07
2023-03-12T17:50:19.371Z,63.00
2023-03-12T17:52:46.584Z,63.64
2023-03-12T17:55:13.772Z,64.22
2023-03-12T17:57:41.032Z,64.17
2023-03-12T18:00:12.513Z,63.16
2023-03-12T18:02:41.726Z,63.79
2023-03-12T18:05:12.183Z,65.03
2023-03-12T18:07:40.853Z,64.46
2023-03-12T18:10:11.231Z,65.95
2023-03-12T18:12:40.088Z,65.95
2023-03-12T18:15:12.372Z,68.35
2023-03-12T18:17:42.207Z,68.15
2023-03-12T18:20:13.415Z,66.94
2023-03-12T18:22:41.845Z,68.56
2023-03-12T18:25:10.841Z,71.24
2023-03-12T18:27:38.087Z,72.18
2023-03-12T18:30:08.252Z,73.67
2023-03-12T18:32:35.572Z,72.63
2023-03-12T18:35:06.530Z,72.77
2023-03-12T18:37:34.265Z,73.84
2023-03-12T18:40:01.321Z,73.02
2023-03-12T18:42:28.447Z,75.24
2023-03-12T18:44:58.649Z,74.85
2023-03-12T18:47:26.254Z,74.50
2023-03-12T18:49:55.095Z,74.49
2023-03-12T18:52:22.491Z,73.67
2023-03-12T18:54:49.659Z,76.55
2023-03-12T18:57:16.716Z,75.01
2023-03-12T18:59:47.136Z,76.13
2023-03-12T19:02:14.317Z,75.76
2023-03-12T19:04:41.657Z,75.97
2023-03-12T19:07:10.680Z,75.36
2023-03-12T19:09:37.967Z,78.03
2023-03-12T19:12:05.335Z,77.07
2023-03-12T19:14:32.408Z,77.72
2023-03-12T19:16:59.487Z,76.18
2023-03-12T19:19:26.567Z,76.32
2023-03-12T19:21:53.779Z,77.55
2023-03-12T19:24:20.800Z,79.25
2023-03-12T19:26:47.860Z,78.18
2023-03-12T19:29:16.909Z,78.71
2023-03-12T19:31:44.043Z,78.08
2023-03-12T19:34:11.111Z,78.80
2023-03-12T19:36:38.196Z,79.91
2023-03-12T19:39:15.249Z,78.70
2023-03-12T19:41:47.863Z,78.69
2023-03-12T19:44:14.890Z,77.85
2023-03-12T19:46:43.203Z,77.84
2023-03-12T19:49:10.487Z,78.67
2023-03-12T19:51:40.119Z,78.41
2023-03-12T19:54:07.820Z,78.12
2023-03-12T19:56:35.046Z,77.96
2023-03-12T19:59:02.149Z,77.77
2023-03-12T20:01:29.214Z,77.42
2023-03-12T20:03:56.398Z,78.99
2023-03-12T20:06:23.441Z,78.35
2023-03-12T20:08:50.704Z,78.14
2023-03-12T20:11:17.869Z,78.86
2023-03-12T20:13:45.895Z,77.93
2023-03-12T20:16:13.841Z,78.49
2023-03-12T20:18:41.208Z,77.76
2023-03-12T20:21:08.371Z,78.38
2023-03-12T20:23:35.557Z,78.51
2023-03-12T20:26:02.939Z,77.87
2023-03-12T20:28:30.207Z,78.89
2023-03-12T20:30:57.374Z,78.64
2023-03-12T20:33:24.433Z,78.88
2023-03-12T20:35:51.703Z,78.70
2023-03-12T20:38:18.763Z,79.60
2023-03-12T20:40:46.682Z,78.85
2023-03-12T20:43:13.832Z,78.71
2023-03-12T20:45:41.114Z,78.98
2023-03-12T20:48:08.237Z,78.91
2023-03-12T20:50:39.114Z,78.87
2023-03-12T20:53:07.241Z,78.86
2023-03-12T20:55:34.276Z,79.02
2023-03-12T20:58:01.370Z,79.33
2023-03-12T21:00:28.625Z,79.85
2023-03-12T21:02:55.833Z,80.41
2023-03-12T21:05:25.057Z,79.95
2023-03-12T21:07:53.900Z,79.71
2023-03-12T21:10:21.495Z,79.86
2023-03-12T21:12:48.550Z,80.21
2023-03-12T21:15:15.799Z,80.03
2023-03-12T21:17:42.875Z,79.78
2023-03-12T21:20:13.557Z,80.60
2023-03-12T21:22:43.334Z,80.41
2023-03-12T21:25:11.619Z,80.48
2023-03-12T21:27:49.787Z,79.93
2023-03-12T21:30:18.956Z,80.94
2023-03-12T21:32:46.133Z,81.69
2023-03-12T21:35:13.400Z,80.65
2023-03-12T21:37:40.645Z,81.22
2023-03-12T21:40:11.695Z,81.01
2023-03-12T21:42:42.173Z,81.73
2023-03-12T21:45:10.732Z,80.94
2023-03-12T21:47:38.357Z,82.29
2023-03-12T21:50:06.330Z,81.20
2023-03-12T21:52:41.313Z,81.81
2023-03-12T21:55:10.751Z,82.52
2023-03-12T21:57:38.852Z,81.24
2023-03-12T22:00:13.274Z,82.23
2023-03-12T22:02:45.763Z,81.50
2023-03-12T22:05:13.470Z,81.29
2023-03-12T22:07:44.761Z,81.71
2023-03-12T22:10:12.200Z,80.95
2023-03-12T22:12:40.117Z,81.53
2023-03-12T22:15:13.919Z,81.51
2023-03-12T22:17:41.044Z,81.87
2023-03-12T22:20:12.464Z,81.62
2023-03-12T22:22:39.588Z,82.41
2023-03-12T22:25:09.886Z,81.39
2023-03-12T22:27:36.989Z,81.57
2023-03-12T22:30:05.009Z,81.17
2023-03-12T22:32:32.386Z,80.86
2023-03-12T22:34:59.596Z,81.15
2023-03-12T22:37:26.647Z,81.13
2023-03-12T22:39:58.069Z,80.63
2023-03-12T22:42:25.141Z,82.08
2023-03-12T22:44:52.305Z,82.37
2023-03-12T22:47:21.374Z,82.17
2023-03-12T22:49:53.004Z,80.91
2023-03-12T22:52:20.182Z,82.09
2023-03-12T22:54:47.253Z,81.45
2023-03-12T22:57:14.289Z,81.35
2023-03-12T22:59:41.331Z,81.42
2023-03-12T23:02:08.446Z,82.23
2023-03-12T23:04:35.829Z,81.20
2023-03-12T23:07:13.618Z,81.83
2023-03-12T23:09:41.759Z,81.39
2023-03-12T23:12:09.145Z,81.25
2023-03-12T23:14:36.232Z,81.38
2023-03-12T23:17:03.373Z,82.14
2023-03-12T23:19:34.535Z,81.41
2023-03-12T23:22:01.719Z,81.70
2023-03-12T23:24:31.533Z,81.76
2023-03-12T23:26:58.655Z,81.53
2023-03-12T23:29:25.831Z,81.34
2023-03-12T23:31:53.141Z,81.51
2023-03-12T23:34:20.274Z,81.90
2023-03-12T23:36:47.556Z,81.52
2023-03-12T23:39:15.484Z,82.03
2023-03-12T23:41:42.656Z,81.62
2023-03-12T23:44:12.135Z,81.39
2023-03-12T23:46:39.166Z,81.56
2023-03-12T23:49:07.029Z,80.43
2023-03-12T23:51:34.413Z,81.62
2023-03-12T23:54:05.457Z,81.70
2023-03-12T23:56:43.732Z,81.98
2023-03-12T23:59:11.234Z,81.49
